Time;durP1;ratioP1;P1;durP2;ratioP2;P2;SDS_P1;SDS_P2;PMS_P1;PMS_P2;Temp;Humidity;BMP_temperature;BMP_pressure;BME280_temperature;BME280_humidity;BME280_pressure;Samples;Min_cycle;Max_cycle;Signal;HPM_P1;HPM_P2
2022/12/10 00:00:38;;;;;;;57.05;27.77;;;-1.20;99.90;;;;;;5115930;28;20043;-63
2022/12/10 00:03:04;;;;;;;64.40;28.88;;;-1.20;99.90;;;;;;5115215;28;20047;-63
2022/12/10 00:05:29;;;;;;;59.35;28.77;;;-1.20;99.90;;;;;;5115081;28;20133;-63
2022/12/10 00:07:55;;;;;;;63.08;28.67;;;-1.20;99.90;;;;;;5098646;28;20089;-64
2022/12/10 00:10:21;;;;;;;61.97;29.48;;;-1.10;99.90;;;;;;5113537;28;20440;-63
2022/12/10 00:12:46;;;;;;;53.75;26.85;;;-1.20;99.90;;;;;;5114804;28;20047;-64
2022/12/10 00:15:12;;;;;;;62.22;29.05;;;-1.20;99.90;;;;;;5112806;28;20056;-64
2022/12/10 00:17:38;;;;;;;62.25;29.73;;;-1.30;99.90;;;;;;5116140;28;20058;-63
2022/12/10 00:20:04;;;;;;;63.78;28.73;;;-1.30;99.90;;;;;;5113767;28;20046;-63
2022/12/10 00:22:30;;;;;;;57.83;28.00;;;-1.30;99.90;;;;;;5116125;28;20044;-63
2022/12/10 00:24:55;;;;;;;56.42;26.85;;;-1.30;99.90;;;;;;5097377;28;20073;-64
2022/12/10 00:27:21;;;;;;;65.30;29.00;;;-1.30;99.90;;;;;;5114184;28;20031;-63
2022/12/10 00:29:46;;;;;;;59.67;28.80;;;-1.40;99.90;;;;;;5115635;28;21157;-63
2022/12/10 00:32:12;;;;;;;61.25;28.60;;;-1.40;99.90;;;;;;5114228;28;20573;-63
2022/12/10 00:34:38;;;;;;;61.92;28.60;;;-1.40;99.90;;;;;;5115169;28;20531;-64
2022/12/10 00:37:03;;;;;;;59.33;27.98;;;-1.50;99.90;;;;;;5114249;28;20036;-63
2022/12/10 00:39:29;;;;;;;65.53;28.98;;;-1.50;99.90;;;;;;5113734;28;20126;-63
2022/12/10 00:41:55;;;;;;;62.35;29.45;;;-1.50;99.90;;;;;;5061166;28;20054;-63
2022/12/10 00:44:20;;;;;;;65.38;28.40;;;-1.50;99.90;;;;;;5113288;28;20057;-63
2022/12/10 00:46:46;;;;;;;63.13;27.83;;;-1.50;99.90;;;;;;5097248;28;20124;-63
2022/12/10 00:49:12;;;;;;;58.42;27.33;;;-1.50;99.90;;;;;;5112770;28;20039;-64
2022/12/10 00:51:38;;;;;;;63.72;30.27;;;-1.50;99.90;;;;;;5114021;28;20061;-64
2022/12/10 00:54:04;;;;;;;68.55;29.52;;;-1.50;99.90;;;;;;5114560;28;20044;-64
2022/12/10 00:56:34;;;;;;;63.65;28.30;;;-1.50;99.90;;;;;;5115533;28;20138;-64
2022/12/10 00:59:01;;;;;;;63.63;29.80;;;-1.50;99.90;;;;;;5115092;28;20543;-63
2022/12/10 01:01:37;;;;;;;64.97;29.05;;;-1.50;99.90;;;;;;5113092;28;20043;-63
2022/12/10 01:04:12;;;;;;;;;;;-1.50;99.90;;;;;;5116311;28;20547;-63
2022/12/10 01:06:50;;;;;;;64.63;28.60;;;-1.50;99.90;;;;;;5111440;28;19924;-63
2022/12/10 01:09:19;;;;;;;62.30;28.60;;;-1.50;99.90;;;;;;5115422;28;20048;-63
2022/12/10 01:11:47;;;;;;;58.47;25.70;;;-1.40;99.90;;;;;;5113333;28;20282;-62
2022/12/10 01:14:18;;;;;;;66.65;27.77;;;-1.50;99.90;;;;;;5087887;28;20040;-63
2022/12/10 01:16:44;;;;;;;61.83;29.55;;;-1.50;99.90;;;;;;5114889;28;20149;-64
2022/12/10 01:19:10;;;;;;;63.83;29.42;;;-1.50;99.90;;;;;;5112451;28;20541;-64
2022/12/10 01:21:36;;;;;;;62.97;29.45;;;-1.40;99.90;;;;;;5114636;28;20032;-63
2022/12/10 01:24:02;;;;;;;58.63;29.02;;;-1.50;99.90;;;;;;5111975;28;20337;-63
2022/12/10 01:26:31;;;;;;;63.17;29.88;;;-1.50;99.90;;;;;;5114850;28;20040;-63
2022/12/10 01:28:58;;;;;;;60.63;26.95;;;-1.50;99.90;;;;;;5113971;28;20047;-63
2022/12/10 01:31:34;;;;;;;64.43;28.73;;;-1.50;99.90;;;;;;5113075;28;20070;-63
2022/12/10 01:34:00;;;;;;;60.00;27.60;;;-1.50;99.90;;;;;;5114778;28;20099;-64
2022/12/10 01:36:28;;;;;;;61.85;28.38;;;-1.50;99.90;;;;;;5111372;28;20038;-63
2022/12/10 01:38:54;;;;;;;63.53;29.80;;;-1.50;99.90;;;;;;5095749;28;20088;-64
2022/12/10 01:41:50;;;;;;;74.13;30.30;;;-1.50;99.90;;;;;;5088864;28;20044;-63
2022/12/10 01:44:16;;;;;;;65.32;30.00;;;-1.50;99.90;;;;;;5110664;28;20126;-63
2022/12/10 01:46:47;;;;;;;63.40;29.90;;;-1.50;99.90;;;;;;5113022;28;20043;-64
2022/12/10 01:49:16;;;;;;;64.43;29.42;;;-1.50;99.90;;;;;;5111814;28;20459;-63
2022/12/10 01:51:44;;;;;;;66.40;29.23;;;-1.50;99.90;;;;;;5114946;28;20067;-63
2022/12/10 01:54:17;;;;;;;63.15;29.23;;;-1.50;99.90;;;;;;5112396;28;20071;-63
2022/12/10 01:56:45;;;;;;;67.80;30.13;;;-1.50;99.90;;;;;;5095780;28;20571;-63
2022/12/10 01:59:13;;;;;;;61.75;28.58;;;-1.50;99.90;;;;;;5113484;28;20103;-63
2022/12/10 02:01:48;;;;;;;66.28;30.02;;;-1.50;99.90;;;;;;5112310;28;20050;-64
2022/12/10 02:04:28;;;;;;;65.10;30.55;;;-1.50;99.90;;;;;;5112905;28;20188;-63
2022/12/10 02:06:58;;;;;;;59.72;28.85;;;-1.50;99.90;;;;;;5113002;28;20051;-64
2022/12/10 02:09:34;;;;;;;70.20;28.70;;;-1.50;99.90;;;;;;5113455;28;20101;-63
2022/12/10 02:12:15;;;;;;;59.95;27.20;;;-1.50;99.90;;;;;;5112820;28;20096;-62
2022/12/10 02:14:55;;;;;;;68.18;31.05;;;-1.50;99.90;;;;;;5111896;28;20078;-63
2022/12/10 02:17:39;;;;;;;65.07;29.85;;;-1.60;99.90;;;;;;5113368;28;20080;-64
2022/12/10 02:20:17;;;;;;;61.85;30.58;;;-1.60;99.90;;;;;;5094451;28;20039;-64
2022/12/10 02:22:50;;;;;;;57.42;27.85;;;-1.60;99.90;;;;;;5112987;28;20174;-63
2022/12/10 02:25:21;;;;;;;67.07;28.80;;;-1.70;99.90;;;;;;5112888;28;20090;-63
2022/12/10 02:28:05;;;;;;;75.55;31.25;;;-1.70;99.90;;;;;;5110515;28;20044;-63
2022/12/10 02:30:32;;;;;;;69.13;29.45;;;-1.70;99.90;;;;;;5113511;28;20945;-63
2022/12/10 02:33:00;;;;;;;64.60;27.67;;;-1.70;99.90;;;;;;5093909;28;20044;-63
2022/12/10 02:35:30;;;;;;;69.03;31.27;;;-1.70;99.90;;;;;;5111734;28;20463;-63
2022/12/10 02:38:05;;;;;;;69.38;30.63;;;-1.70;99.90;;;;;;5112970;28;20040;-62
2022/12/10 02:40:33;;;;;;;63.83;28.90;;;-1.80;99.90;;;;;;5111622;28;20063;-63
2022/12/10 02:42:59;;;;;;;66.03;29.63;;;-1.80;99.90;;;;;;5112207;28;20096;-64
2022/12/10 02:45:29;;;;;;;67.80;29.70;;;-1.80;99.90;;;;;;5111882;28;20071;-64
2022/12/10 02:47:58;;;;;;;73.15;30.35;;;-1.80;99.90;;;;;;5093631;28;20068;-63
2022/12/10 02:50:25;;;;;;;63.60;27.13;;;-1.60;99.90;;;;;;5111665;28;20495;-63
2022/12/10 02:52:51;;;;;;;65.55;29.45;;;-1.90;99.90;;;;;;5111743;28;20043;-63
2022/12/10 02:55:19;;;;;;;69.60;31.02;;;-1.90;99.90;;;;;;5113418;28;20032;-63
2022/12/10 02:57:47;;;;;;;68.82;30.30;;;-0.30;99.90;;;;;;5110623;28;20040;-63
2022/12/10 03:00:19;;;;;;;65.95;29.60;;;-2.00;99.90;;;;;;5112318;28;20108;-63
2022/12/10 03:03:03;;;;;;;66.82;30.33;;;-2.00;99.90;;;;;;5111828;28;20109;-63
2022/12/10 03:05:58;;;;;;;72.07;31.90;;;-2.00;99.90;;;;;;5112689;28;20048;-63
2022/12/10 03:08:38;;;;;;;67.15;30.23;;;-2.00;99.90;;;;;;5112973;28;20031;-63
2022/12/10 03:11:27;;;;;;;71.75;31.15;;;-2.00;99.90;;;;;;5092556;28;20055;-63
2022/12/10 03:14:04;;;;;;;72.32;31.17;;;-2.00;99.90;;;;;;5092720;28;20075;-64
2022/12/10 03:16:35;;;;;;;73.97;31.77;;;-2.10;99.90;;;;;;5094866;28;20063;-63
2022/12/10 03:19:05;;;;;;;69.03;30.40;;;-2.10;99.90;;;;;;5093234;28;20102;-64
2022/12/10 03:21:34;;;;;;;76.20;31.83;;;-2.10;99.90;;;;;;5095613;28;20290;-64
2022/12/10 03:24:00;;;;;;;74.03;30.92;;;-2.10;99.90;;;;;;5109585;28;20046;-63
2022/12/10 03:26:27;;;;;;;71.38;31.35;;;-2.10;99.90;;;;;;5111851;28;20227;-64
2022/12/10 03:29:00;;;;;;;70.82;29.88;;;-2.10;99.90;;;;;;5113570;28;20087;-63
2022/12/10 03:31:26;;;;;;;74.65;31.02;;;-2.10;99.90;;;;;;5115042;28;20044;-63
2022/12/10 03:33:52;;;;;;;80.15;34.33;;;-2.10;99.90;;;;;;5117180;28;20302;-63
2022/12/10 03:36:20;;;;;;;78.65;33.08;;;-2.00;99.90;;;;;;5094913;28;20083;-63
2022/12/10 03:38:46;;;;;;;75.75;32.70;;;-2.10;99.90;;;;;;5099032;28;20054;-63
2022/12/10 03:41:11;;;;;;;70.35;30.98;;;-2.10;99.90;;;;;;5116033;28;20031;-63
2022/12/10 03:43:50;;;;;;;74.72;29.73;;;-2.10;99.90;;;;;;5116905;28;20048;-64
2022/12/10 03:46:16;;;;;;;71.93;30.80;;;-2.10;99.90;;;;;;5115213;28;20369;-63
2022/12/10 03:48:41;;;;;;;66.20;29.75;;;-2.10;99.90;;;;;;5114359;28;20047;-63
2022/12/10 03:51:07;;;;;;;71.10;30.25;;;-2.10;99.90;;;;;;5116208;28;20066;-64
2022/12/10 03:53:32;;;;;;;73.47;30.88;;;-2.10;99.90;;;;;;5114952;28;20054;-62
2022/12/10 03:55:58;;;;;;;71.60;30.90;;;-2.10;99.90;;;;;;5114927;28;20054;-64
2022/12/10 03:58:24;;;;;;;75.10;31.00;;;-2.20;99.90;;;;;;5114401;28;20054;-63
2022/12/10 04:00:50;;;;;;;75.75;31.15;;;-2.20;99.90;;;;;;5114123;28;20101;-64
2022/12/10 04:03:15;;;;;;;68.78;31.13;;;-2.20;99.90;;;;;;5098081;28;20039;-62
2022/12/10 04:05:41;;;;;;;68.03;31.30;;;-2.20;99.90;;;;;;5114008;28;20087;-62
2022/12/10 04:08:07;;;;;;;79.15;29.08;;;-2.30;99.90;;;;;;5117240;28;20051;-62
2022/12/10 04:10:37;;;;;;;73.68;30.55;;;-2.30;99.90;;;;;;5112158;28;20046;-63
2022/12/10 04:18:33;;;;;;;70.80;30.73;;;-2.30;99.90;;;;;;5115271;28;20048;-64
2022/12/10 04:29:12;;;;;;;68.13;29.48;;;-2.40;99.90;;;;;;5114971;28;20499;-62
2022/12/10 04:31:38;;;;;;;66.95;29.33;;;-2.40;99.90;;;;;;5114116;28;20047;-62
2022/12/10 04:34:04;;;;;;;73.40;31.25;;;-2.40;99.90;;;;;;5098367;28;20035;-63
2022/12/10 04:36:29;;;;;;;71.15;29.00;;;-2.40;99.90;;;;;;5094794;28;20075;-63
2022/12/10 04:38:55;;;;;;;67.18;29.98;;;-2.50;99.90;;;;;;5115970;28;20578;-63
2022/12/10 04:41:21;;;;;;;64.13;28.98;;;-2.50;99.90;;;;;;5113297;28;20071;-62
2022/12/10 04:43:46;;;;;;;69.28;30.17;;;-2.50;99.90;;;;;;5115525;28;20039;-62
2022/12/10 04:46:12;;;;;;;71.13;30.92;;;-2.50;99.90;;;;;;5114338;28;20996;-62
2022/12/10 04:48:38;;;;;;;73.68;29.92;;;-2.60;99.90;;;;;;5113438;28;20079;-62
2022/12/10 04:51:04;;;;;;;67.47;30.42;;;-2.60;99.90;;;;;;5115819;28;20052;-62
2022/12/10 04:53:29;;;;;;;69.85;29.63;;;-2.60;99.90;;;;;;5085760;28;20043;-62
2022/12/10 04:55:55;;;;;;;70.50;28.90;;;-2.50;99.90;;;;;;5114662;28;20050;-63
2022/12/10 04:58:21;;;;;;;70.90;30.30;;;-2.50;99.90;;;;;;5115243;28;20042;-63
2022/12/10 05:00:47;;;;;;;76.47;29.80;;;-2.40;99.90;;;;;;5114314;28;20514;-63
2022/12/10 05:03:12;;;;;;;87.22;34.08;;;-3.50;99.90;;;;;;5097163;28;20050;-62
2022/12/10 05:05:38;;;;;;;84.00;35.22;;;-2.40;99.90;;;;;;5094462;28;20467;-62
2022/12/10 05:08:04;;;;;;;96.88;33.85;;;-2.40;99.90;;;;;;5115781;28;20136;-62
2022/12/10 05:10:30;;;;;;;83.75;32.15;;;-2.30;99.90;;;;;;5113083;28;20095;-62
2022/12/10 05:12:55;;;;;;;98.25;33.03;;;-2.30;99.90;;;;;;5094596;28;20047;-63
2022/12/10 05:15:21;;;;;;;104.25;33.55;;;-2.30;99.90;;;;;;5094530;28;20062;-62
2022/12/10 05:17:47;;;;;;;140.88;31.77;;;-2.30;99.90;;;;;;5115103;28;20330;-63
2022/12/10 05:20:13;;;;;;;201.02;32.50;;;-2.40;99.90;;;;;;5114281;28;20399;-62
2022/12/10 05:25:23;;;;;;;150.35;28.30;;;-2.30;99.90;;;;;;5114761;28;20104;-62
2022/12/10 05:27:48;;;;;;;169.88;28.77;;;-2.40;99.90;;;;;;5113692;28;20090;-63
2022/12/10 05:30:14;;;;;;;158.32;28.90;;;-2.40;99.90;;;;;;5115439;28;20050;-62
2022/12/10 05:32:40;;;;;;;171.63;28.90;;;-2.30;99.90;;;;;;5111655;28;20694;-62
2022/12/10 05:35:06;;;;;;;172.88;28.92;;;-1.40;99.90;;;;;;5114357;28;20031;-61
2022/12/10 05:37:32;;;;;;;204.57;29.33;;;-2.30;99.90;;;;;;5096527;28;20062;-62
2022/12/10 05:39:58;;;;;;;201.75;27.27;;;-2.30;99.90;;;;;;5112801;28;20100;-62
2022/12/10 05:42:23;;;;;;;220.70;27.80;;;-2.30;99.90;;;;;;5114091;28;20067;-61
2022/12/10 05:44:49;;;;;;;157.35;28.85;;;-2.30;99.90;;;;;;5112208;28;20043;-62
2022/12/10 05:47:15;;;;;;;109.70;27.70;;;-2.40;99.90;;;;;;5114655;28;20032;-63
2022/12/10 05:49:40;;;;;;;268.50;34.35;;;-2.30;99.90;;;;;;5112307;28;20050;-62
2022/12/10 05:52:08;;;;;;;278.73;33.50;;;-2.30;99.90;;;;;;5112375;28;20070;-62
2022/12/10 05:54:34;;;;;;;241.75;30.27;;;-2.30;99.90;;;;;;5113036;28;20051;-63
2022/12/10 05:57:00;;;;;;;198.93;30.42;;;-2.30;99.90;;;;;;5113294;28;20483;-62
2022/12/10 05:59:25;;;;;;;143.05;28.25;;;-2.40;99.90;;;;;;5113732;28;20027;-62
2022/12/10 06:01:51;;;;;;;256.30;31.20;;;-2.40;99.90;;;;;;5112009;28;20040;-62
2022/12/10 06:04:17;;;;;;;196.18;29.70;;;-2.30;99.90;;;;;;5088598;28;20057;-62
2022/12/10 06:06:42;;;;;;;175.05;27.50;;;-2.40;99.90;;;;;;5112207;28;20039;-62
2022/12/10 06:09:12;;;;;;;97.32;27.48;;;-2.40;99.90;;;;;;5114248;28;20102;-63
2022/12/10 06:11:37;;;;;;;326.58;33.38;;;-2.40;99.90;;;;;;5112925;28;20055;-62
2022/12/10 06:14:03;;;;;;;287.48;36.25;;;-2.40;99.90;;;;;;5091680;28;20412;-63
2022/12/10 06:16:29;;;;;;;170.88;27.38;;;-2.40;99.90;;;;;;5113794;28;20104;-62
2022/12/10 06:18:56;;;;;;;267.48;31.80;;;-2.40;99.90;;;;;;5112002;28;20095;-63
2022/12/10 06:21:22;;;;;;;217.40;29.95;;;-2.40;99.90;;;;;;5096053;28;20081;-61
2022/12/10 06:23:51;;;;;;;208.05;28.65;;;-2.40;99.90;;;;;;5111478;28;20047;-62
2022/12/10 06:26:20;;;;;;;152.30;23.98;;;-2.40;99.90;;;;;;5113634;28;20562;-62
2022/12/10 06:28:47;;;;;;;171.73;28.45;;;-2.40;99.90;;;;;;5113065;28;20043;-62
2022/12/10 06:31:13;;;;;;;209.93;27.45;;;-2.40;99.90;;;;;;5094586;28;20395;-63
2022/12/10 06:33:39;;;;;;;226.45;30.92;;;-2.40;99.90;;;;;;5113612;28;20403;-61
2022/12/10 06:36:06;;;;;;;182.07;28.77;;;-2.40;99.90;;;;;;5112330;28;20148;-62
2022/12/10 06:38:33;;;;;;;136.27;28.85;;;-2.50;99.90;;;;;;5113021;28;20085;-61
2022/12/10 06:40:59;;;;;;;107.78;24.70;;;-2.50;99.90;;;;;;5092615;28;20035;-62
2022/12/10 06:43:27;;;;;;;124.40;24.55;;;-2.40;99.90;;;;;;5113249;28;20042;-62
2022/12/10 06:45:53;;;;;;;261.00;31.40;;;-2.40;99.90;;;;;;5112221;28;20616;-62
2022/12/10 06:48:18;;;;;;;198.93;29.77;;;-2.40;99.90;;;;;;5111122;28;20036;-63
2022/12/10 06:50:44;;;;;;;171.95;25.73;;;-2.40;99.90;;;;;;5112822;28;20364;-64
2022/12/10 06:53:10;;;;;;;192.15;29.02;;;-2.40;99.90;;;;;;5112439;28;20054;-62
2022/12/10 06:55:38;;;;;;;224.00;30.88;;;-2.50;99.90;;;;;;5113248;28;20675;-62
2022/12/10 06:58:04;;;;;;;117.18;31.35;;;-2.50;99.90;;;;;;5108520;28;20036;-62
2022/12/10 07:00:29;;;;;;;148.77;28.05;;;-2.50;99.90;;;;;;5110268;28;20050;-61
2022/12/10 07:02:55;;;;;;;126.65;30.42;;;-2.50;99.90;;;;;;5112717;28;20047;-62
2022/12/10 07:05:21;;;;;;;178.50;30.73;;;-2.50;99.90;;;;;;5109748;28;20119;-62
2022/12/10 07:07:46;;;;;;;99.75;29.67;;;-2.50;99.90;;;;;;5113137;28;20047;-61
2022/12/10 07:10:13;;;;;;;144.35;30.70;;;-2.50;99.90;;;;;;5109137;28;20036;-62
2022/12/10 07:12:38;;;;;;;124.03;28.45;;;-2.40;99.90;;;;;;5112904;28;20395;-61
2022/12/10 07:15:06;;;;;;;79.05;26.15;;;-2.40;99.90;;;;;;5110449;28;20096;-61
2022/12/10 07:17:32;;;;;;;188.80;32.90;;;-2.40;99.90;;;;;;5113339;28;20052;-61
2022/12/10 07:19:57;;;;;;;109.22;31.50;;;-1.90;99.90;;;;;;5110229;28;20043;-63
2022/12/10 07:22:23;;;;;;;96.07;31.33;;;-2.40;99.90;;;;;;5093595;28;20051;-61
2022/12/10 07:24:50;;;;;;;166.52;33.13;;;-2.40;99.90;;;;;;5092912;28;20044;-61
2022/12/10 07:27:15;;;;;;;116.38;33.40;;;-2.30;99.90;;;;;;5109714;28;20051;-63
2022/12/10 07:29:41;;;;;;;102.40;31.70;;;-2.30;99.90;;;;;;5112806;28;20035;-66
2022/12/10 07:32:07;;;;;;;105.97;32.05;;;-2.30;99.90;;;;;;5067076;28;20205;-67
2022/12/10 07:34:32;;;;;;;99.97;33.13;;;-2.20;99.90;;;;;;5095041;28;20585;-66
2022/12/10 07:36:58;;;;;;;103.32;33.92;;;-2.20;99.90;;;;;;5111825;28;20043;-66
2022/12/10 07:39:24;;;;;;;112.53;34.78;;;-2.20;99.90;;;;;;5089910;28;20111;-66
2022/12/10 07:41:52;;;;;;;101.38;34.40;;;-2.20;99.90;;;;;;5113654;28;20036;-63
2022/12/10 07:44:20;;;;;;;111.07;34.05;;;-2.20;99.90;;;;;;5110190;28;20048;-62
2022/12/10 07:46:48;;;;;;;97.25;32.78;;;-2.20;99.90;;;;;;5113466;28;20498;-63
2022/12/10 07:49:14;;;;;;;90.53;34.15;;;-2.10;99.90;;;;;;5110392;28;20043;-65
2022/12/10 07:51:44;;;;;;;90.53;33.80;;;-2.10;99.90;;;;;;5112792;28;20035;-64
2022/12/10 07:54:10;;;;;;;101.32;35.33;;;-2.10;99.90;;;;;;5092247;28;20036;-67
2022/12/10 07:56:35;;;;;;;96.45;35.10;;;-2.00;99.90;;;;;;5112311;28;20562;-65
2022/12/10 07:59:01;;;;;;;102.40;35.15;;;-2.10;99.90;;;;;;5113617;28;20051;-65
2022/12/10 08:01:27;;;;;;;105.75;35.90;;;-2.00;99.90;;;;;;5111553;28;20040;-64
2022/12/10 08:03:57;;;;;;;114.15;34.67;;;-2.10;99.90;;;;;;5112393;28;20501;-65
2022/12/10 08:06:25;;;;;;;106.07;34.53;;;-2.10;99.90;;;;;;5108004;28;20420;-63
2022/12/10 08:08:51;;;;;;;135.32;32.97;;;-2.00;99.90;;;;;;5112610;28;20044;-63
2022/12/10 08:11:18;;;;;;;120.95;33.80;;;-2.50;99.90;;;;;;5106655;28;20039;-64
2022/12/10 08:13:44;;;;;;;100.05;32.35;;;-2.00;99.90;;;;;;5091491;28;20065;-64
2022/12/10 08:16:16;;;;;;;110.00;33.13;;;-2.00;99.90;;;;;;5113634;28;20048;-63
2022/12/10 08:18:42;;;;;;;98.57;31.40;;;-2.00;99.90;;;;;;5115957;27;20105;-63
2022/12/10 08:21:16;;;;;;;89.95;32.42;;;-2.00;99.90;;;;;;5115957;28;20090;-64
2022/12/10 08:23:42;;;;;;;90.22;30.15;;;-2.00;99.90;;;;;;5114846;28;20407;-65
2022/12/10 08:26:11;;;;;;;98.13;31.65;;;-2.00;99.90;;;;;;5096477;28;20059;-63
2022/12/10 08:28:37;;;;;;;96.15;30.60;;;-2.00;99.90;;;;;;5114211;28;20125;-62
2022/12/10 08:31:03;;;;;;;94.82;31.27;;;-2.00;99.90;;;;;;5094912;28;20075;-63
2022/12/10 08:33:29;;;;;;;82.38;30.85;;;-1.90;99.90;;;;;;5097711;28;20044;-63
2022/12/10 08:35:59;;;;;;;82.50;31.80;;;-1.90;99.90;;;;;;5113330;28;20107;-63
2022/12/10 08:38:25;;;;;;;111.50;34.35;;;-1.90;99.90;;;;;;5117200;28;20048;-66
2022/12/10 08:40:51;;;;;;;112.70;34.72;;;-1.90;99.90;;;;;;5095833;28;20040;-64
2022/12/10 08:43:17;;;;;;;102.78;27.65;;;-2.00;99.90;;;;;;5116703;28;20047;-63
2022/12/10 08:45:42;;;;;;;121.72;30.58;;;-1.90;99.90;;;;;;5114726;28;20088;-63
2022/12/10 08:48:08;;;;;;;120.47;29.38;;;-1.90;99.90;;;;;;5116059;28;20039;-63
2022/12/10 08:50:34;;;;;;;100.40;30.30;;;-2.00;99.90;;;;;;5097323;28;20039;-63
2022/12/10 08:53:00;;;;;;;81.45;30.58;;;-2.00;99.90;;;;;;5112117;28;20059;-63
2022/12/10 08:55:25;;;;;;;87.10;29.40;;;-2.00;99.90;;;;;;5114314;28;20097;-64
2022/12/10 08:57:51;;;;;;;76.38;27.25;;;-1.90;99.90;;;;;;5114540;28;20104;-64
2022/12/10 09:00:18;;;;;;;85.95;29.33;;;-1.90;99.90;;;;;;5114287;28;20054;-63
2022/12/10 09:02:44;;;;;;;69.97;25.10;;;-1.90;99.90;;;;;;5112270;28;20040;-64
2022/12/10 09:05:10;;;;;;;98.28;30.65;;;-1.90;99.90;;;;;;5073970;28;20075;-64
2022/12/10 09:07:36;;;;;;;87.60;29.45;;;-1.80;99.90;;;;;;5112406;28;20052;-64
2022/12/10 09:10:02;;;;;;;93.95;29.42;;;-1.80;99.90;;;;;;5112618;28;20071;-64
2022/12/10 09:12:28;;;;;;;86.80;27.20;;;-1.80;99.90;;;;;;5096165;28;20513;-64
2022/12/10 09:14:54;;;;;;;89.70;29.58;;;-1.80;99.90;;;;;;5093792;28;20090;-64
2022/12/10 09:17:20;;;;;;;91.88;29.23;;;-1.90;99.90;;;;;;5115148;28;20040;-63
2022/12/10 09:19:45;;;;;;;117.53;29.35;;;-1.90;99.90;;;;;;5114276;28;20100;-64
2022/12/10 09:22:11;;;;;;;106.95;30.50;;;-1.90;99.90;;;;;;5115330;28;20314;-64
2022/12/10 09:24:37;;;;;;;77.93;27.50;;;-1.90;99.90;;;;;;5095316;28;20059;-64
2022/12/10 09:27:03;;;;;;;104.05;31.55;;;-1.90;99.90;;;;;;5113847;28;20036;-63
2022/12/10 09:29:29;;;;;;;85.90;29.98;;;-1.80;99.90;;;;;;5115050;28;20432;-66
2022/12/10 09:31:54;;;;;;;80.53;28.42;;;-1.80;99.90;;;;;;5113402;28;20110;-64
2022/12/10 09:34:21;;;;;;;81.55;27.75;;;-1.80;99.90;;;;;;5113813;28;20056;-64
2022/12/10 09:36:47;;;;;;;90.30;27.95;;;-0.80;99.90;;;;;;5093831;28;20043;-64
2022/12/10 09:39:13;;;;;;;69.95;27.63;;;-1.40;99.90;;;;;;5114918;28;20043;-63
2022/12/10 09:41:47;;;;;;;72.50;24.80;;;-1.70;99.90;;;;;;5112218;28;20471;-64
2022/12/10 09:44:22;;;;;;;79.72;28.55;;;-1.70;99.90;;;;;;5112753;28;20047;-64
2022/12/10 09:46:53;;;;;;;72.57;27.95;;;-1.70;99.90;;;;;;5114838;28;20078;-64
2022/12/10 09:49:31;;;;;;;76.50;28.00;;;-1.70;99.90;;;;;;5112196;28;20093;-64
2022/12/10 09:52:00;;;;;;;70.43;28.02;;;-1.70;99.90;;;;;;5096188;28;20044;-64
2022/12/10 09:54:34;;;;;;;79.57;27.90;;;-1.70;99.90;;;;;;5113612;28;20047;-62
2022/12/10 09:57:03;;;;;;;75.47;27.67;;;-1.70;99.90;;;;;;5112780;28;20104;-64
2022/12/10 09:59:38;;;;;;;71.95;26.92;;;-1.70;99.90;;;;;;5114716;28;20048;-64
2022/12/10 10:02:27;;;;;;;72.85;26.77;;;-1.50;99.90;;;;;;5112495;28;20511;-63
2022/12/10 10:05:05;;;;;;;74.60;27.23;;;-1.60;99.90;;;;;;5114065;28;20043;-64
2022/12/10 10:07:32;;;;;;;79.82;27.75;;;-1.60;99.90;;;;;;5113895;28;20046;-63
2022/12/10 10:10:04;;;;;;;74.95;27.77;;;-1.50;99.90;;;;;;5113114;28;20044;-63
2022/12/10 10:12:34;;;;;;;71.38;28.00;;;-1.50;99.90;;;;;;5114365;28;20048;-63
2022/12/10 10:15:12;;;;;;;69.90;27.58;;;-1.50;99.90;;;;;;5111963;28;20058;-64
2022/12/10 10:17:38;;;;;;;67.93;28.40;;;-1.50;99.90;;;;;;5114200;28;20083;-63
2022/12/10 10:20:05;;;;;;;71.32;28.52;;;-1.50;99.90;;;;;;5112876;28;20044;-63
2022/12/10 10:22:31;;;;;;;64.22;25.08;;;-1.50;99.90;;;;;;5112917;28;20053;-63
2022/12/10 10:24:57;;;;;;;67.80;28.10;;;-1.50;99.90;;;;;;5113589;28;20057;-62
2022/12/10 10:27:31;;;;;;;65.90;26.80;;;-1.40;99.90;;;;;;5112376;28;20040;-63
2022/12/10 10:30:00;;;;;;;76.28;27.65;;;-1.40;99.90;;;;;;5095567;28;20184;-64
2022/12/10 10:32:47;;;;;;;78.57;28.67;;;-1.40;99.90;;;;;;5111925;28;20495;-63
2022/12/10 10:35:58;;;;;;;66.95;26.60;;;-1.40;99.90;;;;;;5085844;28;20083;-64
2022/12/10 10:38:27;;;;;;;71.05;28.38;;;-1.40;99.90;;;;;;5111029;28;20047;-64
2022/12/10 10:40:59;;;;;;;74.70;29.33;;;-1.40;99.90;;;;;;5111835;28;20095;-63
2022/12/10 10:43:32;;;;;;;68.97;27.30;;;-1.40;99.90;;;;;;5112986;28;20678;-65
2022/12/10 10:46:02;;;;;;;65.75;25.58;;;-1.40;99.90;;;;;;5113609;28;20047;-64
2022/12/10 10:48:29;;;;;;;71.68;28.48;;;-1.40;99.90;;;;;;5072353;28;20046;-64
2022/12/10 10:51:08;;;;;;;71.63;28.73;;;-1.30;99.90;;;;;;5091858;28;20043;-63
2022/12/10 10:54:03;;;;;;;74.85;29.05;;;-1.30;99.90;;;;;;5106924;28;20130;-62
2022/12/10 10:56:39;;;;;;;61.97;25.42;;;-1.30;99.90;;;;;;5091189;28;20081;-62
2022/12/10 10:59:31;;;;;;;69.15;26.25;;;-1.30;99.90;;;;;;5112127;28;20054;-61
2022/12/10 11:02:13;;;;;;;64.38;24.83;;;-1.20;99.90;;;;;;5109345;28;20039;-61
2022/12/10 11:04:46;;;;;;;69.13;27.33;;;-1.20;99.90;;;;;;5112087;28;20039;-60
2022/12/10 11:07:31;;;;;;;69.35;25.83;;;-1.20;99.90;;;;;;5110867;28;20436;-60
2022/12/10 11:09:57;;;;;;;64.65;26.02;;;-1.20;99.90;;;;;;5110864;28;20054;-61
2022/12/10 11:12:37;;;;;;;68.60;27.27;;;-1.20;99.90;;;;;;5113117;28;20067;-63
2022/12/10 11:15:23;;;;;;;70.82;28.95;;;-1.10;99.90;;;;;;5092590;28;20052;-62
2022/12/10 11:17:52;;;;;;;67.40;26.80;;;-1.10;99.90;;;;;;5098193;28;20120;-60
2022/12/10 11:20:24;;;;;;;75.82;28.65;;;-1.10;99.90;;;;;;5110782;28;20147;-61
2022/12/10 11:22:56;;;;;;;79.50;29.00;;;-1.10;99.90;;;;;;5111365;28;20051;-60
2022/12/10 11:26:02;;;;;;;74.75;29.63;;;-1.10;99.90;;;;;;5095415;28;20050;-62
2022/12/10 11:28:43;;;;;;;68.53;26.42;;;-1.00;99.90;;;;;;5063232;28;20509;-61
2022/12/10 11:31:31;;;;;;;82.22;29.65;;;-1.00;99.90;;;;;;5093384;28;20039;-62
2022/12/10 11:34:23;;;;;;;72.75;28.30;;;-1.00;99.90;;;;;;5094242;28;20153;-62
2022/12/10 11:37:19;;;;;;;78.15;29.27;;;-1.00;99.90;;;;;;5112003;28;20097;-63
2022/12/10 11:39:54;;;;;;;83.68;30.20;;;-1.00;99.90;;;;;;5091325;28;20062;-62
2022/12/10 11:42:37;;;;;;;80.47;29.33;;;-1.00;99.90;;;;;;5112634;28;20046;-63
2022/12/10 11:45:30;;;;;;;85.22;28.88;;;-0.90;99.90;;;;;;5092078;28;20609;-63
2022/12/10 11:48:04;;;;;;;84.60;28.83;;;-0.90;99.90;;;;;;5110978;28;20051;-63
2022/12/10 11:50:33;;;;;;;83.93;29.70;;;-0.90;99.90;;;;;;5096097;28;20249;-63
2022/12/10 11:53:01;;;;;;;90.43;33.00;;;-0.90;99.90;;;;;;5114572;28;20495;-62
2022/12/10 11:55:49;;;;;;;85.40;29.77;;;-0.90;99.90;;;;;;5116574;28;20058;-62
2022/12/10 11:58:50;;;;;;;84.18;31.30;;;-0.80;99.90;;;;;;5114774;28;20044;-61
2022/12/10 12:01:36;;;;;;;84.45;31.00;;;-1.50;99.90;;;;;;5115266;28;20040;-62
2022/12/10 12:04:18;;;;;;;81.90;29.98;;;-0.80;99.90;;;;;;5115932;28;20047;-63
2022/12/10 12:07:02;;;;;;;91.22;29.13;;;-0.80;99.90;;;;;;5115063;28;20752;-63
2022/12/10 12:09:41;;;;;;;87.45;31.05;;;-0.80;99.90;;;;;;5097288;28;20051;-63
2022/12/10 12:12:31;;;;;;;87.60;30.27;;;-0.70;99.90;;;;;;5115572;28;20047;-63
2022/12/10 12:15:03;;;;;;;82.97;29.17;;;-0.70;99.90;;;;;;5114003;28;20059;-65
2022/12/10 12:17:43;;;;;;;84.35;29.00;;;-0.70;99.90;;;;;;5115658;28;20051;-64
2022/12/10 12:20:42;;;;;;;78.95;29.48;;;-0.60;99.90;;;;;;5087324;28;20043;-66
2022/12/10 12:23:28;;;;;;;80.93;29.08;;;-0.60;99.90;;;;;;5094491;28;20035;-64
2022/12/10 12:26:01;;;;;;;84.10;31.20;;;-0.60;99.90;;;;;;5115891;28;20062;-64
2022/12/10 12:28:34;;;;;;;80.93;28.38;;;-0.50;99.90;;;;;;5115328;28;20062;-63
2022/12/10 12:31:15;;;;;;;82.47;29.52;;;-0.50;99.90;;;;;;5115498;28;20059;-64
2022/12/10 12:34:20;;;;;;;74.00;28.55;;;-0.50;99.90;;;;;;5115735;28;20071;-63
2022/12/10 12:36:46;;;;;;;79.30;29.58;;;-0.50;99.90;;;;;;5114272;28;20066;-65
2022/12/10 12:39:17;;;;;;;74.00;31.67;;;-0.50;99.90;;;;;;5092504;28;20406;-65
2022/12/10 12:42:00;;;;;;;76.18;28.92;;;-0.50;99.90;;;;;;5114139;28;20055;-64
2022/12/10 12:44:43;;;;;;;76.00;29.75;;;-0.50;99.90;;;;;;5113993;28;20462;-64
2022/12/10 12:47:34;;;;;;;79.72;30.73;;;-0.50;99.90;;;;;;5072867;28;20592;-63
2022/12/10 12:50:01;;;;;;;80.13;29.80;;;-0.50;99.90;;;;;;5090257;28;20071;-64
2022/12/10 12:52:27;;;;;;;76.45;29.52;;;-0.50;99.90;;;;;;5095966;28;20043;-62
2022/12/10 12:54:59;;;;;;;78.97;29.38;;;-0.50;99.90;;;;;;5115998;28;20399;-64
2022/12/10 12:57:49;;;;;;;86.57;30.90;;;-0.40;99.90;;;;;;5111001;28;20367;-64